createdAt,value
2022-09-26T00:03:27.246Z,3.13
2022-09-26T00:08:12.245Z,8.85
2022-09-26T00:12:58.258Z,4.28
2022-09-26T00:17:43.459Z,5.72
2022-09-26T00:22:31.812Z,7.22
2022-09-26T00:27:16.847Z,4.60
2022-09-26T00:32:02.194Z,2.55
2022-09-26T00:36:47.427Z,4.47
2022-09-26T00:41:35.294Z,8.18
2022-09-26T00:46:31.319Z,4.50
2022-09-26T00:51:17.081Z,4.47
2022-09-26T00:56:09.830Z,3.20
2022-09-26T01:00:58.857Z,4.50
2022-09-26T01:05:44.084Z,3.70
2022-09-26T01:10:29.955Z,2.65
2022-09-26T01:15:15.667Z,4.60
2022-09-26T01:20:17.568Z,3.45
2022-09-26T01:25:18.598Z,3.25
2022-09-26T01:30:17.963Z,3.40
2022-09-26T01:35:13.085Z,2.58
2022-09-26T01:40:06.364Z,4.55
2022-09-26T01:44:56.377Z,5.65
2022-09-26T01:49:52.230Z,5.95
2022-09-26T01:54:40.911Z,5.80
2022-09-26T01:59:29.482Z,5.45
2022-09-26T02:04:20.690Z,7.88
2022-09-26T02:09:13.254Z,5.60
2022-09-26T02:14:04.264Z,6.70
2022-09-26T02:18:53.144Z,6.05
2022-09-26T02:23:38.818Z,5.60
2022-09-26T02:28:26.510Z,6.05
2022-09-26T02:33:12.330Z,4.03
2022-09-26T02:37:57.424Z,10.52
2022-09-26T02:42:51.974Z,17.02
2022-09-26T02:48:08.127Z,6.95
2022-09-26T02:53:04.804Z,4.65
2022-09-26T02:58:04.248Z,4.53
2022-09-26T03:02:58.363Z,6.35
2022-09-26T03:07:49.816Z,6.50
2022-09-26T03:12:36.877Z,5.03
2022-09-26T03:17:23.575Z,7.97
2022-09-26T03:22:09.114Z,7.80
2022-09-26T03:26:58.534Z,8.10
2022-09-26T03:31:45.335Z,9.98
2022-09-26T03:36:32.367Z,9.50
2022-09-26T03:41:17.804Z,10.88
2022-09-26T03:46:09.644Z,13.95
2022-09-26T03:55:39.639Z,17.98
2022-09-26T04:00:25.090Z,11.38
2022-09-26T04:05:13.147Z,17.10
2022-09-26T04:09:58.531Z,25.92
2022-09-26T04:14:43.708Z,17.23
2022-09-26T04:19:29.024Z,16.45
2022-09-26T04:24:19.807Z,16.10
2022-09-26T04:29:05.470Z,17.10
2022-09-26T04:33:50.691Z,19.08
2022-09-26T04:38:36.050Z,25.08
2022-09-26T04:43:23.645Z,22.00
2022-09-26T04:48:08.869Z,18.88
2022-09-26T04:52:53.801Z,19.30
2022-09-26T04:57:39.196Z,19.00
2022-09-26T05:02:26.935Z,15.13
2022-09-26T05:07:12.315Z,17.02
2022-09-26T05:11:57.353Z,18.90
2022-09-26T05:16:42.667Z,15.77
2022-09-26T05:21:30.349Z,20.98
2022-09-26T05:26:23.589Z,19.27
2022-09-26T05:31:08.857Z,15.00
2022-09-26T05:35:55.007Z,16.75
2022-09-26T05:40:55.123Z,16.95
2022-09-26T05:45:40.910Z,16.70
2022-09-26T05:50:25.943Z,13.90
2022-09-26T05:55:12.180Z,15.50
2022-09-26T05:59:59.828Z,14.77
2022-09-26T06:04:45.076Z,18.27
2022-09-26T06:09:30.352Z,11.75
2022-09-26T06:14:15.657Z,12.73
2022-09-26T06:19:03.300Z,17.83
2022-09-26T06:23:49.483Z,13.60
2022-09-26T06:28:34.503Z,26.20
2022-09-26T06:33:19.808Z,16.08
2022-09-26T06:38:07.604Z,22.20
2022-09-26T06:42:52.896Z,28.98
2022-09-26T06:47:38.185Z,24.70
2022-09-26T06:52:23.513Z,24.23
2022-09-26T06:57:15.308Z,17.65
2022-09-26T07:06:46.438Z,17.00
2022-09-26T07:11:42.157Z,24.88
2022-09-26T07:16:39.050Z,14.30
2022-09-26T07:21:24.278Z,10.20
2022-09-26T07:26:10.025Z,11.88
2022-09-26T07:30:58.978Z,9.65
2022-09-26T07:35:47.268Z,20.33
2022-09-26T07:40:32.478Z,17.10
2022-09-26T07:45:27.936Z,15.02
2022-09-26T07:50:13.576Z,12.07
2022-09-26T07:55:01.493Z,13.75
2022-09-26T07:59:46.486Z,16.60
2022-09-26T08:04:31.891Z,13.43
2022-09-26T08:09:16.935Z,13.60
2022-09-26T08:14:04.884Z,12.15
2022-09-26T08:18:50.110Z,12.90
2022-09-26T08:23:35.547Z,12.25
2022-09-26T08:28:21.153Z,12.32
2022-09-26T08:33:12.701Z,12.68
2022-09-26T08:37:58.267Z,12.47
2022-09-26T08:42:55.934Z,13.30
2022-09-26T08:47:50.014Z,11.13
2022-09-26T08:52:45.070Z,12.65
2022-09-26T08:57:40.696Z,9.68
2022-09-26T09:02:33.712Z,10.50
2022-09-26T09:07:24.580Z,7.32
2022-09-26T09:12:24.906Z,8.05
2022-09-26T09:17:23.694Z,6.35
2022-09-26T09:22:46.536Z,7.68
2022-09-26T09:27:53.916Z,6.65
2022-09-26T09:32:50.408Z,9.30
2022-09-26T09:37:46.591Z,9.98
2022-09-26T09:42:43.645Z,8.23
2022-09-26T09:47:31.752Z,8.95
2022-09-26T09:52:31.172Z,7.15
2022-09-26T09:57:37.015Z,5.40
2022-09-26T10:02:37.158Z,8.90
2022-09-26T10:07:22.552Z,6.45
2022-09-26T10:12:16.373Z,6.60
2022-09-26T10:17:21.443Z,4.05
2022-09-26T10:22:15.496Z,5.43
2022-09-26T10:27:00.582Z,4.70
2022-09-26T10:31:48.351Z,5.75
2022-09-26T10:36:34.931Z,4.00
2022-09-26T10:41:28.498Z,2.35
2022-09-26T10:46:16.619Z,4.03
2022-09-26T10:51:02.069Z,5.57
2022-09-26T10:55:51.390Z,5.80
2022-09-26T11:00:45.057Z,4.47
2022-09-26T11:05:42.466Z,3.72
2022-09-26T11:10:34.422Z,4.00
2022-09-26T11:15:19.538Z,7.15
2022-09-26T11:20:10.800Z,3.35
2022-09-26T11:25:06.431Z,3.00
2022-09-26T11:29:56.596Z,4.15
2022-09-26T11:34:41.642Z,5.25
2022-09-26T11:39:49.021Z,5.28
2022-09-26T11:44:49.325Z,2.60
2022-09-26T11:49:56.266Z,5.07
2022-09-26T11:54:59.076Z,2.88
2022-09-26T12:00:06.671Z,5.35
2022-09-26T12:05:27.209Z,3.15
2022-09-26T12:10:30.577Z,4.77
2022-09-26T12:15:24.753Z,6.07
2022-09-26T12:20:22.756Z,4.07
2022-09-26T12:25:36.287Z,7.95
2022-09-26T12:30:25.803Z,8.63
2022-09-26T12:35:28.203Z,3.42
2022-09-26T12:40:22.474Z,4.63
2022-09-26T12:45:29.776Z,5.53
2022-09-26T12:50:29.408Z,3.22
2022-09-26T12:55:35.094Z,6.90
2022-09-26T13:00:23.336Z,3.67
2022-09-26T13:05:39.906Z,5.88
2022-09-26T13:10:41.129Z,3.30
2022-09-26T13:15:35.488Z,10.20
2022-09-26T13:20:27.522Z,6.22
2022-09-26T13:25:20.171Z,5.88
2022-09-26T13:30:11.093Z,4.05
2022-09-26T13:35:04.399Z,6.05
2022-09-26T13:39:55.103Z,6.78
2022-09-26T13:44:57.664Z,4.30
2022-09-26T13:49:57.098Z,7.57
2022-09-26T13:54:59.192Z,4.10
2022-09-26T13:59:55.214Z,5.10
2022-09-26T14:04:41.939Z,2.22
2022-09-26T14:09:47.634Z,10.70
2022-09-26T14:14:50.022Z,7.07
2022-09-26T14:19:39.414Z,7.53
2022-09-26T14:24:34.909Z,8.80
2022-09-26T14:29:33.325Z,10.77
2022-09-26T14:34:25.426Z,8.10
2022-09-26T14:39:27.427Z,6.68
2022-09-26T14:44:23.726Z,5.43
2022-09-26T14:49:11.505Z,5.25
2022-09-26T14:54:01.796Z,4.68
2022-09-26T14:58:52.388Z,9.20
2022-09-26T15:03:41.218Z,7.70
2022-09-26T15:08:28.413Z,4.75
2022-09-26T15:13:25.385Z,5.88
2022-09-26T15:18:17.394Z,6.20
2022-09-26T15:23:14.042Z,6.88
2022-09-26T15:27:59.726Z,9.55
2022-09-26T15:32:46.577Z,7.57
2022-09-26T15:37:34.130Z,6.03
2022-09-26T15:42:42.923Z,9.82
2022-09-26T15:47:45.006Z,11.48
2022-09-26T15:52:30.530Z,7.70
2022-09-26T15:57:16.276Z,6.07
2022-09-26T16:02:04.728Z,11.73
2022-09-26T16:06:58.590Z,8.68
2022-09-26T16:11:50.295Z,12.27
2022-09-26T16:16:37.824Z,9.90
2022-09-26T16:21:27.993Z,10.50
2022-09-26T16:26:24.644Z,11.25
2022-09-26T16:31:23.375Z,13.45
2022-09-26T16:36:20.147Z,11.15
2022-09-26T16:41:11.215Z,10.82
2022-09-26T16:46:03.313Z,9.55
2022-09-26T16:50:48.644Z,11.30
2022-09-26T16:55:37.719Z,12.77
2022-09-26T17:00:40.365Z,11.32
2022-09-26T17:05:27.018Z,11.48
2022-09-26T17:10:12.713Z,9.52
2022-09-26T17:14:58.609Z,7.22
2022-09-26T17:19:55.525Z,7.20
2022-09-26T17:24:45.014Z,6.53
2022-09-26T17:29:33.493Z,11.23
2022-09-26T17:34:19.236Z,9.52
2022-09-26T17:39:08.313Z,7.47
2022-09-26T17:43:59.151Z,13.88
2022-09-26T17:48:44.726Z,9.32
2022-09-26T17:53:40.159Z,10.80
2022-09-26T17:58:27.773Z,12.05
2022-09-26T18:03:23.514Z,9.18
2022-09-26T18:08:17.003Z,13.85
2022-09-26T18:13:09.423Z,9.73
2022-09-26T18:18:01.632Z,12.90
2022-09-26T18:22:49.578Z,15.80
2022-09-26T18:27:40.652Z,15.63
2022-09-26T18:32:31.915Z,16.27
2022-09-26T18:37:19.633Z,16.92
2022-09-26T18:42:09.351Z,22.80
2022-09-26T18:46:57.181Z,18.25
2022-09-26T18:51:46.647Z,14.75
2022-09-26T18:56:46.598Z,19.83
2022-09-26T19:01:34.378Z,14.30
2022-09-26T19:06:23.336Z,17.13
2022-09-26T19:11:13.192Z,17.70
2022-09-26T19:16:00.938Z,18.60
2022-09-26T19:20:46.574Z,15.90
2022-09-26T19:25:31.741Z,13.75
2022-09-26T19:30:20.088Z,15.65
2022-09-26T19:35:10.779Z,11.40
2022-09-26T19:39:57.823Z,10.10
2022-09-26T19:44:42.838Z,12.63
2022-09-26T19:49:32.202Z,7.00
2022-09-26T19:54:21.483Z,10.40
2022-09-26T19:59:06.765Z,9.50
2022-09-26T20:03:52.831Z,14.80
2022-09-26T20:08:38.183Z,17.25
2022-09-26T20:13:26.362Z,14.70
2022-09-26T20:18:16.662Z,16.15
2022-09-26T20:23:02.059Z,18.25
2022-09-26T20:27:47.411Z,19.20
2022-09-26T20:32:35.173Z,20.30
2022-09-26T20:37:23.604Z,17.95
2022-09-26T20:42:10.431Z,21.67
2022-09-26T20:47:00.016Z,20.30
2022-09-26T20:51:48.359Z,21.92
2022-09-26T20:56:33.723Z,25.85
2022-09-26T21:01:19.960Z,31.88
2022-09-26T21:06:05.273Z,33.40
2022-09-26T21:10:52.913Z,35.05
2022-09-26T21:15:41.794Z,34.30
2022-09-26T21:20:29.056Z,33.65
2022-09-26T21:25:19.467Z,33.75
2022-09-26T21:30:07.526Z,31.42
2022-09-26T21:35:00.936Z,32.28
2022-09-26T21:39:46.068Z,35.60
2022-09-26T21:44:35.006Z,30.13
2022-09-26T21:49:22.668Z,37.33
2022-09-26T21:54:12.707Z,42.70
2022-09-26T21:58:58.974Z,44.03
2022-09-26T22:03:44.294Z,39.40
2022-09-26T22:08:32.158Z,40.53
2022-09-26T22:13:17.248Z,37.53
2022-09-26T22:18:03.230Z,39.83
2022-09-26T22:22:48.263Z,41.58
2022-09-26T22:27:37.596Z,32.72
2022-09-26T22:32:22.603Z,38.83
2022-09-26T22:37:08.598Z,37.40
2022-09-26T22:41:54.462Z,40.05
2022-09-26T22:46:44.690Z,37.75
2022-09-26T22:51:30.210Z,35.50
2022-09-26T22:56:18.630Z,29.40
2022-09-26T23:01:04.743Z,29.55
2022-09-26T23:05:53.206Z,39.33
2022-09-26T23:10:39.107Z,31.83
2022-09-26T23:15:24.738Z,40.85
2022-09-26T23:20:11.600Z,41.17
2022-09-26T23:25:00.427Z,33.13
2022-09-26T23:29:46.305Z,37.35
2022-09-26T23:34:32.318Z,45.40
2022-09-26T23:39:18.244Z,40.05
2022-09-26T23:44:06.837Z,36.92
2022-09-26T23:48:52.567Z,32.78
2022-09-26T23:53:39.088Z,28.35
2022-09-26T23:58:24.774Z,28.35
